Time;durP1;ratioP1;P1;durP2;ratioP2;P2;SDS_P1;SDS_P2;PMS_P1;PMS_P2;Temp;Humidity;BMP_temperature;BMP_pressure;BME280_temperature;BME280_humidity;BME280_pressure;Samples;Min_cycle;Max_cycle;Signal;HPM_P1;HPM_P2
2022/01/28 00:01:44;;;;;;;14.02;3.30;;;;;;;3.18;84.59;102913.19;5075909;28;20023;-71
2022/01/28 00:04:15;;;;;;;18.42;3.30;;;;;;;3.15;84.74;102913.00;5060648;28;20039;-72
2022/01/28 00:06:40;;;;;;;12.68;2.25;;;;;;;3.12;84.33;102922.41;5040860;28;20024;-72
2022/01/28 00:09:09;;;;;;;9.60;2.45;;;;;;;3.11;84.69;102927.50;5069535;28;20381;-71
2022/01/28 00:11:35;;;;;;;13.02;3.17;;;;;;;3.10;84.34;102925.72;5060333;28;20043;-71
2022/01/28 00:17:00;;;;;;;11.75;3.15;;;;;;;3.09;83.85;102944.69;5078864;28;20039;-71
2022/01/28 00:38:34;;;;;;;10.45;2.80;;;;;;;2.93;83.22;102943.88;5063440;28;20097;-71
2022/01/28 00:41:00;;;;;;;16.83;2.75;;;;;;;2.91;83.34;102937.69;5041596;28;20029;-71
2022/01/28 00:43:26;;;;;;;11.20;3.10;;;;;;;2.90;83.57;102942.78;5083332;28;20024;-71
2022/01/28 00:45:51;;;;;;;13.23;2.88;;;;;;;2.87;83.67;102938.34;5055903;28;20036;-71
2022/01/28 00:48:19;;;;;;;6.57;1.88;;;;;;;2.84;83.95;102942.47;5039303;28;20052;-72
2022/01/28 00:50:45;;;;;;;15.15;2.75;;;;;;;2.80;83.97;102946.56;5055849;28;20536;-71
2022/01/28 00:53:11;;;;;;;13.52;2.78;;;;;;;2.77;83.95;102938.66;5065038;28;20036;-73
2022/01/28 00:55:37;;;;;;;15.13;2.80;;;;;;;2.75;84.68;102943.75;5062640;28;20796;-72
2022/01/28 00:58:03;;;;;;;12.20;3.13;;;;;;;2.71;84.38;102954.75;5075929;28;20107;-71
2022/01/28 01:00:29;;;;;;;10.13;2.05;;;;;;;2.69;84.54;102953.78;5054705;28;20036;-71
2022/01/28 01:02:54;;;;;;;6.07;2.33;;;;;;;2.68;84.71;102948.53;5055699;28;20461;-72
2022/01/28 01:05:22;;;;;;;13.63;3.45;;;;;;;2.66;84.82;102948.44;5062316;28;20138;-71
2022/01/28 01:07:47;;;;;;;11.27;2.72;;;;;;;2.66;84.69;102957.88;5042087;28;20063;-70
2022/01/28 01:10:13;;;;;;;11.85;3.28;;;;;;;2.64;84.99;102944.84;5054182;28;20051;-71
2022/01/28 01:12:43;;;;;;;10.20;2.45;;;;;;;2.72;85.00;102948.75;5072908;28;20036;-70
2022/01/28 01:15:11;;;;;;;11.13;2.72;;;;;;;2.76;85.30;102953.31;5069220;28;20043;-71
2022/01/28 01:17:46;;;;;;;9.75;2.92;;;;;;;2.82;84.97;102949.28;5072111;28;20556;-70
2022/01/28 01:25:37;;;;;;;18.23;3.08;;;;;;;2.94;85.11;102960.28;5078037;28;20379;-74
2022/01/28 01:28:05;;;;;;;9.75;2.95;;;;;;;2.98;84.57;102962.22;5069873;28;20480;-76
2022/01/28 01:30:38;;;;;;;15.25;3.38;;;;;;;3.03;84.69;102975.41;5049639;28;20540;-76
2022/01/28 01:33:03;;;;;;;13.80;3.15;;;;;;;3.05;84.60;102977.28;5060843;28;20078;-74
2022/01/28 01:35:29;;;;;;;14.55;3.10;;;;;;;3.07;84.01;102977.38;5042720;28;20037;-76
2022/01/28 01:37:58;;;;;;;10.27;2.33;;;;;;;3.09;83.75;102975.78;5046348;28;20035;-76
2022/01/28 01:40:29;;;;;;;28.23;3.92;;;;;;;3.10;84.20;102975.84;5064061;28;20166;-72
2022/01/28 01:43:08;;;;;;;14.10;2.70;;;;;;;3.08;83.85;102985.22;5055689;28;20377;-75
2022/01/28 01:53:37;;;;;;;20.33;3.53;;;;;;;3.15;84.04;103016.63;5051873;28;20460;-73
2022/01/28 01:56:03;;;;;;;13.77;3.78;;;;;;;3.15;84.09;103019.22;5066438;28;20036;-75
2022/01/28 01:58:32;;;;;;;16.17;2.65;;;;;;;3.16;84.29;103015.84;5024577;28;20512;-75
2022/01/28 02:01:01;;;;;;;18.65;2.88;;;;;;;3.15;83.67;103014.94;5051224;28;20043;-75
2022/01/28 02:03:28;;;;;;;15.57;3.25;;;;;;;3.18;84.31;103032.38;5074030;28;20027;-74
2022/01/28 02:05:58;;;;;;;15.15;3.38;;;;;;;3.20;84.02;103031.63;5038299;28;20116;-75
2022/01/28 02:08:29;;;;;;;21.92;3.60;;;;;;;3.19;83.59;103036.72;5065316;28;20032;-75
2022/01/28 02:10:58;;;;;;;16.27;3.08;;;;;;;3.17;83.97;103031.47;5052116;28;20043;-74
2022/01/28 02:13:25;;;;;;;8.80;2.50;;;;;;;3.15;84.31;103038.28;5043051;28;20038;-74
2022/01/28 02:15:52;;;;;;;19.65;3.03;;;;;;;3.14;83.65;103045.97;5058190;28;20123;-75
2022/01/28 02:18:17;;;;;;;8.93;3.05;;;;;;;3.12;84.39;103049.34;5070046;28;20036;-75
2022/01/28 02:20:48;;;;;;;9.13;2.95;;;;;;;3.13;83.80;103039.88;5033302;28;20024;-74
2022/01/28 02:23:19;;;;;;;12.20;2.85;;;;;;;3.11;84.13;103047.56;5045203;28;20040;-75
2022/01/28 02:25:44;;;;;;;20.73;2.97;;;;;;;3.11;84.20;103051.84;5054049;28;20039;-75
2022/01/28 02:28:13;;;;;;;15.23;2.65;;;;;;;3.08;84.25;103056.88;5068199;28;20025;-74
2022/01/28 02:30:39;;;;;;;12.93;2.63;;;;;;;3.05;84.34;103052.41;5058790;28;20051;-74
2022/01/28 02:33:12;;;;;;;13.18;2.60;;;;;;;3.06;84.35;103053.28;5054354;28;20403;-75
2022/01/28 02:35:41;;;;;;;10.82;2.25;;;;;;;3.04;84.45;103055.81;5054973;28;20042;-75
2022/01/28 02:38:08;;;;;;;12.30;2.67;;;;;;;3.03;84.09;103056.63;5063939;28;20505;-75
2022/01/28 02:40:35;;;;;;;14.43;3.13;;;;;;;3.07;84.26;103068.03;5075293;28;20028;-76
2022/01/28 02:43:18;;;;;;;11.52;2.25;;;;;;;3.07;84.52;103058.56;5085711;28;20119;-75
2022/01/28 02:45:46;;;;;;;16.33;2.85;;;;;;;3.10;84.44;103056.16;5072296;28;20545;-75
2022/01/28 02:48:22;;;;;;;12.50;3.00;;;;;;;3.09;84.86;103062.13;5085073;28;20122;-75
2022/01/28 02:51:09;;;;;;;16.17;2.50;;;;;;;3.10;84.48;103070.78;5074258;28;20031;-76
2022/01/28 02:56:20;;;;;;;13.50;2.75;;;;;;;3.10;84.43;103066.53;5087805;28;20115;-75
2022/01/28 02:58:49;;;;;;;18.83;3.55;;;;;;;3.10;84.98;103071.72;5053226;28;20036;-76
2022/01/28 03:01:19;;;;;;;8.90;2.47;;;;;;;3.11;85.04;103076.06;5058464;28;20032;-74
2022/01/28 03:03:47;;;;;;;20.77;3.25;;;;;;;3.11;85.02;103076.06;5053372;28;20037;-74
2022/01/28 03:06:18;;;;;;;12.10;3.58;;;;;;;3.11;85.43;103081.25;5046737;28;20098;-75
2022/01/28 03:08:51;;;;;;;16.38;3.10;;;;;;;3.12;84.71;103090.81;5052500;28;20028;-75
2022/01/28 03:14:02;;;;;;;11.07;2.53;;;;;;;3.11;85.14;103085.53;5074183;28;20032;-75
2022/01/28 03:16:32;;;;;;;20.50;2.80;;;;;;;3.09;84.68;103089.75;5064558;28;20036;-74
2022/01/28 03:19:19;;;;;;;17.02;2.63;;;;;;;3.07;85.11;103091.34;5071666;28;20035;-75
2022/01/28 03:21:54;;;;;;;17.10;2.67;;;;;;;3.08;84.99;103091.44;5050068;28;20115;-75
2022/01/28 03:24:20;;;;;;;22.10;2.67;;;;;;;3.09;85.08;103089.75;5072334;28;20114;-75
2022/01/28 03:26:51;;;;;;;19.50;2.35;;;;;;;3.06;84.96;103084.38;5052640;28;20035;-75
2022/01/28 03:29:17;;;;;;;18.70;2.60;;;;;;;3.05;84.81;103088.69;5048358;28;20071;-75
2022/01/28 03:31:43;;;;;;;15.38;2.53;;;;;;;3.04;85.23;103086.88;5067014;28;20027;-75
2022/01/28 03:34:08;;;;;;;6.00;2.55;;;;;;;2.99;85.26;103098.72;5043119;28;20036;-74
2022/01/28 03:36:34;;;;;;;15.38;2.72;;;;;;;2.93;84.47;103096.66;5046439;28;20028;-75
2022/01/28 03:39:00;;;;;;;18.75;3.05;;;;;;;2.89;84.68;103106.78;5051487;28;20371;-75
2022/01/28 03:41:26;;;;;;;15.95;2.08;;;;;;;2.83;84.74;103102.16;5066225;28;20032;-73
2022/01/28 03:43:58;;;;;;;12.73;2.65;;;;;;;2.75;85.08;103101.69;5083614;28;20035;-74
2022/01/28 03:46:26;;;;;;;21.60;3.13;;;;;;;2.70;84.77;103104.81;5063681;28;20028;-75
2022/01/28 03:48:54;;;;;;;20.38;3.50;;;;;;;2.64;85.29;103102.78;5071131;28;20034;-74
2022/01/28 03:51:21;;;;;;;20.08;3.75;;;;;;;2.58;84.68;103103.31;5060254;28;20125;-74
2022/01/28 03:53:47;;;;;;;8.38;2.03;;;;;;;2.53;85.12;103102.16;5041004;28;20048;-73
2022/01/28 03:56:13;;;;;;;9.50;2.83;;;;;;;2.45;84.83;103106.00;5061477;28;20527;-73
2022/01/28 03:58:39;;;;;;;16.40;3.28;;;;;;;2.39;84.91;103106.53;5051433;28;20075;-74
2022/01/28 04:01:15;;;;;;;13.90;3.05;;;;;;;2.34;85.40;103094.13;5063986;28;20032;-73
2022/01/28 04:03:47;;;;;;;14.68;2.30;;;;;;;2.27;86.06;103098.09;5068552;28;20445;-74
2022/01/28 04:11:44;;;;;;;12.82;2.38;;;;;;;2.07;86.32;103104.66;5065127;28;20051;-74
2022/01/28 04:14:19;;;;;;;11.73;3.55;;;;;;;2.02;86.04;103106.06;5059956;28;20077;-73
2022/01/28 04:19:28;;;;;;;8.43;2.17;;;;;;;1.90;86.62;103111.41;5091207;28;20071;-74
2022/01/28 04:21:54;;;;;;;16.25;3.78;;;;;;;1.88;87.62;103110.41;5053573;28;20468;-74
2022/01/28 04:24:19;;;;;;;15.60;2.92;;;;;;;1.94;87.83;103112.47;5057100;28;20131;-73
2022/01/28 04:26:45;;;;;;;5.57;2.33;;;;;;;1.96;87.91;103111.75;5049002;28;20077;-74
2022/01/28 04:29:13;;;;;;;8.57;1.73;;;;;;;1.97;88.52;103099.72;5070808;28;20032;-74
2022/01/28 04:31:45;;;;;;;15.30;2.55;;;;;;;1.97;88.72;103102.28;5042507;28;20035;-74
2022/01/28 04:34:11;;;;;;;10.35;2.47;;;;;;;1.95;88.10;103109.97;5055759;28;20029;-74
2022/01/28 04:37:10;;;;;;;8.18;2.83;;;;;;;1.95;88.43;103120.31;5054761;28;20396;-74
2022/01/28 04:42:08;;;;;;;12.52;3.00;;;;;;;2.01;89.19;103140.47;5077067;28;20040;-73
2022/01/28 04:47:46;;;;;;;9.57;2.42;;;;;;;2.04;88.96;103140.66;5060663;28;20424;-75
2022/01/28 05:00:55;;;;;;;6.15;2.25;;;;;;;2.17;89.82;103157.81;5073991;28;20043;-76
2022/01/28 05:03:35;;;;;;;13.18;2.42;;;;;;;2.15;89.16;103146.50;5044309;28;20127;-75
2022/01/28 05:25:07;;;;;;;11.43;2.85;;;;;;;2.10;89.86;103184.09;5063310;28;20519;-75
2022/01/28 05:27:42;;;;;;;10.75;2.83;;;;;;;2.06;89.26;103176.16;5076460;28;20055;-74
2022/01/28 05:30:08;;;;;;;18.20;2.58;;;;;;;2.04;89.55;103182.03;5080173;28;20430;-74
2022/01/28 05:32:35;;;;;;;10.65;3.33;;;;;;;2.03;89.93;103188.03;5056670;28;20447;-74
2022/01/28 05:35:01;;;;;;;6.03;1.60;;;;;;;1.99;89.97;103189.53;5061857;28;20040;-74
2022/01/28 05:37:29;;;;;;;10.48;2.25;;;;;;;1.98;89.76;103192.91;5077884;28;20032;-73
2022/01/28 05:39:55;;;;;;;14.13;2.60;;;;;;;1.92;89.75;103200.28;5077224;28;20143;-74
2022/01/28 05:42:22;;;;;;;13.60;2.08;;;;;;;1.89;89.58;103205.28;5047429;28;20032;-75
2022/01/28 05:44:48;;;;;;;8.82;2.58;;;;;;;1.85;90.18;103198.13;5047790;28;20037;-76
2022/01/28 05:47:16;;;;;;;14.55;2.78;;;;;;;1.80;89.42;103197.84;5054634;28;20123;-73
2022/01/28 05:49:43;;;;;;;11.00;2.67;;;;;;;1.78;90.03;103214.06;5034034;28;20039;-75
2022/01/28 05:52:09;;;;;;;9.90;2.72;;;;;;;1.77;90.26;103220.94;5068832;28;20093;-75
2022/01/28 05:54:35;;;;;;;17.73;4.20;;;;;;;1.78;90.52;103226.97;5048821;28;20091;-75
2022/01/28 05:57:03;;;;;;;11.32;2.35;;;;;;;1.77;90.99;103225.19;5047878;28;20485;-75
2022/01/28 05:59:32;;;;;;;7.35;2.58;;;;;;;1.78;90.94;103229.56;5041719;28;20036;-75
2022/01/28 06:01:58;;;;;;;20.42;3.35;;;;;;;1.77;91.17;103227.78;5079575;28;20047;-75
2022/01/28 06:04:24;;;;;;;10.68;2.65;;;;;;;1.76;90.88;103232.06;5032117;28;20094;-74
2022/01/28 06:06:55;;;;;;;8.00;2.42;;;;;;;1.75;91.29;103234.56;5050280;28;20039;-74
2022/01/28 06:09:26;;;;;;;13.05;2.85;;;;;;;1.73;91.25;103240.50;5028731;28;20071;-75
2022/01/28 06:11:52;;;;;;;9.23;2.58;;;;;;;1.72;91.31;103243.91;5047093;28;20040;-73
2022/01/28 06:14:21;;;;;;;5.95;3.08;;;;;;;1.71;91.15;103249.88;5052342;28;20401;-72
2022/01/28 06:16:47;;;;;;;10.32;3.47;;;;;;;1.69;91.30;103246.28;5063346;28;20476;-73
2022/01/28 06:19:18;;;;;;;19.13;2.90;;;;;;;1.66;90.76;103251.25;5041949;28;20045;-73
2022/01/28 06:21:44;;;;;;;22.83;3.28;;;;;;;1.61;90.69;103260.44;5035676;28;20132;-73
2022/01/28 06:24:11;;;;;;;7.40;2.22;;;;;;;1.56;90.86;103272.16;5049268;28;20022;-73
2022/01/28 06:26:40;;;;;;;14.48;2.42;;;;;;;1.49;90.60;103270.84;5057901;28;20519;-73
2022/01/28 06:29:06;;;;;;;16.55;3.30;;;;;;;1.40;90.49;103269.38;5058176;28;20033;-73
2022/01/28 06:31:35;;;;;;;9.85;2.03;;;;;;;1.28;89.74;103272.03;5030078;28;20042;-73
2022/01/28 06:34:01;;;;;;;17.80;3.60;;;;;;;1.22;89.83;103280.28;5040761;28;20045;-73
2022/01/28 06:36:30;;;;;;;16.23;4.13;;;;;;;1.15;90.32;103273.84;5034691;28;20037;-73
2022/01/28 06:38:57;;;;;;;7.38;2.33;;;;;;;1.10;90.76;103285.53;5054113;28;20039;-73
2022/01/28 06:41:23;;;;;;;13.88;2.35;;;;;;;1.01;90.17;103293.56;5018945;28;20511;-73
2022/01/28 06:43:50;;;;;;;18.67;2.78;;;;;;;0.94;90.02;103301.69;5031105;28;20444;-73
2022/01/28 06:46:16;;;;;;;11.07;3.13;;;;;;;0.91;90.34;103308.34;5021380;28;20036;-74
2022/01/28 06:48:47;;;;;;;12.45;2.70;;;;;;;0.79;90.17;103300.66;5012650;28;20040;-74
2022/01/28 06:51:13;;;;;;;;;;;;;;;0.82;89.94;103301.75;5054545;28;20043;-75
2022/01/28 06:53:39;;;;;;;12.02;3.58;;;;;;;0.72;89.74;103306.19;5037762;28;19920;-75
2022/01/28 06:56:04;;;;;;;12.35;3.05;;;;;;;0.67;90.25;103311.91;5047437;28;20624;-75
2022/01/28 06:58:30;;;;;;;5.85;1.60;;;;;;;0.63;90.34;103315.09;5072730;28;20164;-74
2022/01/28 07:00:58;;;;;;;12.88;2.55;;;;;;;0.55;90.30;103315.34;5042589;28;20060;-75
2022/01/28 07:03:23;;;;;;;8.40;2.58;;;;;;;0.48;90.08;103309.75;5072690;28;20399;-74
2022/01/28 07:05:49;;;;;;;13.45;3.35;;;;;;;0.46;90.11;103315.59;5073725;28;20468;-75
2022/01/28 07:08:16;;;;;;;11.73;2.47;;;;;;;0.43;90.58;103320.56;5068997;28;20112;-74
2022/01/28 07:10:44;;;;;;;10.38;2.97;;;;;;;0.41;90.80;103332.47;5053966;28;20043;-74
2022/01/28 07:13:12;;;;;;;13.85;3.47;;;;;;;0.40;91.14;103338.41;5038993;28;20032;-74
2022/01/28 07:15:40;;;;;;;7.25;2.47;;;;;;;0.39;91.01;103341.75;5061590;28;20044;-74
2022/01/28 07:18:06;;;;;;;9.85;2.70;;;;;;;0.40;91.32;103347.03;5059878;28;20028;-74
2022/01/28 07:20:33;;;;;;;8.98;2.75;;;;;;;0.41;91.49;103350.53;5058172;28;20046;-74
2022/01/28 07:22:59;;;;;;;18.60;3.25;;;;;;;0.34;91.28;103346.59;5042072;28;20562;-74
2022/01/28 07:25:25;;;;;;;5.85;2.38;;;;;;;0.27;90.68;103345.25;5062793;28;20135;-74
2022/01/28 07:27:53;;;;;;;11.32;3.60;;;;;;;0.30;91.50;103358.41;5079876;28;20033;-74
2022/01/28 07:30:22;;;;;;;9.90;3.72;;;;;;;0.31;91.59;103367.03;5035785;28;20441;-74
2022/01/28 07:32:49;;;;;;;19.33;3.15;;;;;;;0.32;91.28;103358.50;5030089;28;20031;-74
2022/01/28 07:35:15;;;;;;;12.07;3.35;;;;;;;0.28;91.36;103354.81;5073291;28;20043;-74
2022/01/28 07:37:40;;;;;;;10.57;3.65;;;;;;;0.24;90.81;103363.09;5038228;28;20035;-74
2022/01/28 07:40:07;;;;;;;5.20;2.70;;;;;;;0.27;91.43;103368.47;5050697;28;20038;-74
2022/01/28 07:42:36;;;;;;;7.88;2.47;;;;;;;0.29;91.44;103384.97;5062568;28;20033;-74
2022/01/28 07:45:04;;;;;;;14.68;2.90;;;;;;;0.31;91.31;103383.38;5057746;28;20031;-74
2022/01/28 07:47:29;;;;;;;9.45;2.53;;;;;;;0.30;91.12;103378.13;5064923;28;20384;-74
2022/01/28 07:49:55;;;;;;;14.98;3.58;;;;;;;0.40;91.43;103387.41;5071669;28;20093;-74
2022/01/28 07:52:20;;;;;;;4.60;2.70;;;;;;;0.47;91.51;103394.81;5068536;28;20542;-74
2022/01/28 07:54:49;;;;;;;9.40;2.58;;;;;;;0.52;91.92;103399.50;5038549;28;20071;-74
2022/01/28 07:57:17;;;;;;;19.95;4.53;;;;;;;0.60;91.76;103392.28;5040808;28;20127;-75
2022/01/28 07:59:45;;;;;;;17.88;4.40;;;;;;;0.66;91.72;103387.56;5057976;28;20032;-75
2022/01/28 08:02:11;;;;;;;19.90;7.32;;;;;;;0.73;91.34;103385.41;5046241;28;20122;-75
2022/01/28 08:04:38;;;;;;;10.43;5.28;;;;;;;0.81;91.18;103394.59;5083356;28;20128;-75
2022/01/28 08:07:04;;;;;;;17.20;4.38;;;;;;;0.88;91.08;103394.22;5074661;28;20061;-75
2022/01/28 08:09:29;;;;;;;15.00;4.65;;;;;;;0.94;91.20;103399.81;5062198;28;20470;-75
2022/01/28 08:11:55;;;;;;;12.50;4.35;;;;;;;1.04;91.37;103397.06;5042264;28;20525;-75
2022/01/28 08:14:20;;;;;;;19.30;4.15;;;;;;;1.14;91.23;103395.13;5035616;28;20048;-75
2022/01/28 08:16:48;;;;;;;15.20;3.90;;;;;;;1.21;90.76;103407.66;5044308;28;20485;-75
2022/01/28 08:19:14;;;;;;;5.97;3.35;;;;;;;1.31;90.57;103422.09;5056214;28;20460;-75
2022/01/28 08:21:40;;;;;;;13.60;4.70;;;;;;;1.44;90.55;103421.22;5055889;28;20071;-75
2022/01/28 08:24:05;;;;;;;16.08;4.30;;;;;;;1.93;91.39;103421.00;5073013;28;20122;-75
2022/01/28 08:26:31;;;;;;;11.75;4.35;;;;;;;2.88;90.53;103424.41;5067915;28;20044;-75
2022/01/28 08:28:56;;;;;;;18.48;4.82;;;;;;;3.99;88.74;103423.19;5060260;28;20043;-75
2022/01/28 08:31:22;;;;;;;12.55;5.10;;;;;;;5.29;86.73;103431.88;5068140;28;20116;-75
2022/01/28 08:33:47;;;;;;;9.35;5.18;;;;;;;6.48;83.13;103425.59;5055339;28;20063;-75
2022/01/28 08:36:13;;;;;;;14.60;4.72;;;;;;;7.59;79.09;103419.16;5057286;28;20032;-75
2022/01/28 08:38:44;;;;;;;21.00;5.88;;;;;;;8.67;76.20;103426.97;5055361;28;20036;-76
2022/01/28 08:41:12;;;;;;;10.65;3.22;;;;;;;9.57;71.95;103431.88;5055100;28;20123;-76
2022/01/28 08:43:38;;;;;;;8.70;4.47;;;;;;;10.60;69.68;103426.41;5042185;28;20093;-75
2022/01/28 08:46:06;;;;;;;11.07;3.70;;;;;;;11.13;64.35;103431.44;5041993;28;20028;-75
2022/01/28 08:48:32;;;;;;;16.38;4.63;;;;;;;11.99;65.40;103425.78;5039275;28;20439;-76
2022/01/28 08:50:58;;;;;;;8.23;3.97;;;;;;;12.71;62.66;103426.47;5052281;28;20043;-76
2022/01/28 08:53:25;;;;;;;12.07;3.90;;;;;;;13.53;60.63;103414.88;5042168;28;20090;-76
2022/01/28 08:55:51;;;;;;;11.50;4.68;;;;;;;14.16;57.43;103423.78;5083016;28;20461;-76
2022/01/28 08:58:17;;;;;;;7.10;3.05;;;;;;;14.93;55.82;103444.16;5068988;28;20039;-76
2022/01/28 09:00:45;;;;;;;10.07;3.40;;;;;;;15.85;56.70;103436.28;5030110;28;20047;-76
2022/01/28 09:03:12;;;;;;;12.23;4.68;;;;;;;16.57;52.74;103438.47;5056144;28;20097;-76
2022/01/28 09:05:37;;;;;;;8.32;3.00;;;;;;;17.24;52.69;103442.22;5055713;28;20040;-76
2022/01/28 09:08:07;;;;;;;10.23;3.63;;;;;;;17.37;47.00;103451.06;5061685;28;20037;-76
2022/01/28 09:10:34;;;;;;;6.43;2.97;;;;;;;16.43;47.22;103444.59;5042717;28;20033;-76
2022/01/28 09:15:39;;;;;;;11.73;3.42;;;;;;;16.25;51.05;103428.63;5068834;28;20480;-76
2022/01/28 09:18:05;;;;;;;9.88;3.40;;;;;;;15.24;49.27;103435.72;5068124;28;20037;-77
2022/01/28 09:20:32;;;;;;;9.73;3.30;;;;;;;14.26;52.63;103439.75;5044361;28;20035;-77
2022/01/28 09:22:59;;;;;;;9.98;4.30;;;;;;;13.50;53.82;103425.38;5069432;28;20058;-77
2022/01/28 09:25:25;;;;;;;17.17;4.07;;;;;;;12.89;55.02;103436.50;5088684;28;20028;-77
2022/01/28 09:27:51;;;;;;;13.00;4.15;;;;;;;12.24;56.04;103450.00;5083478;28;20032;-76
2022/01/28 09:30:17;;;;;;;7.93;4.35;;;;;;;11.95;57.28;103447.56;5058688;28;20035;-76
2022/01/28 09:32:42;;;;;;;17.48;4.97;;;;;;;11.54;58.18;103448.28;5070022;28;20050;-76
2022/01/28 09:35:08;;;;;;;17.35;4.65;;;;;;;11.27;59.25;103448.44;5056174;28;20020;-76
2022/01/28 09:37:36;;;;;;;8.07;4.22;;;;;;;11.17;60.15;103456.91;5074523;28;20373;-76
2022/01/28 09:40:04;;;;;;;11.50;4.88;;;;;;;11.23;60.04;103451.81;5070443;28;20024;-76
2022/01/28 09:42:33;;;;;;;17.15;5.10;;;;;;;12.62;57.91;103442.09;5054877;28;20090;-76
2022/01/28 09:45:01;;;;;;;17.67;5.00;;;;;;;14.42;51.94;103451.41;5079474;28;20023;-77
2022/01/28 09:47:27;;;;;;;16.95;4.53;;;;;;;15.95;49.70;103453.97;5060078;28;20039;-76
2022/01/28 09:49:53;;;;;;;10.07;4.15;;;;;;;17.62;47.89;103459.94;5074965;28;20020;-76
2022/01/28 09:52:19;;;;;;;9.90;4.05;;;;;;;18.94;44.92;103465.91;5069388;28;20028;-76
2022/01/28 09:54:46;;;;;;;14.50;5.18;;;;;;;20.50;42.88;103473.50;5036554;28;20045;-77
2022/01/28 09:57:16;;;;;;;16.45;5.60;;;;;;;21.42;37.99;103481.13;5055278;28;20442;-76
2022/01/28 09:59:42;;;;;;;9.65;4.68;;;;;;;22.54;36.95;103477.44;5048486;28;20135;-77
2022/01/28 10:02:07;;;;;;;14.88;4.80;;;;;;;23.30;34.98;103492.72;5070658;28;20535;-77
2022/01/28 10:04:33;;;;;;;15.68;4.07;;;;;;;24.06;33.65;103489.06;5054733;28;20033;-78
2022/01/28 10:07:09;;;;;;;10.95;4.65;;;;;;;24.89;38.01;103484.03;5054387;28;20028;-77
2022/01/28 10:09:35;;;;;;;14.10;4.07;;;;;;;25.38;31.57;103491.47;5081200;28;20059;-78
2022/01/28 10:12:24;;;;;;;7.30;3.85;;;;;;;26.19;36.32;103487.84;5057009;28;20071;-78
2022/01/28 10:15:28;;;;;;;10.68;3.65;;;;;;;26.45;36.09;103494.94;5059834;28;20040;-78
2022/01/28 10:17:55;;;;;;;22.30;4.47;;;;;;;26.61;29.22;103489.84;5060031;28;20066;-77
2022/01/28 10:20:23;;;;;;;12.10;4.28;;;;;;;27.03;30.23;103487.41;5065124;28;20483;-77
2022/01/28 10:23:01;;;;;;;6.20;3.40;;;;;;;27.38;32.71;103491.34;5067603;28;20020;-77
2022/01/28 10:25:36;;;;;;;9.23;4.05;;;;;;;27.33;29.15;103492.47;5055544;28;20056;-77
2022/01/28 10:28:10;;;;;;;6.10;3.45;;;;;;;27.60;31.55;103498.56;5039121;28;20511;-77
2022/01/28 10:30:41;;;;;;;7.78;3.38;;;;;;;28.15;26.25;103488.09;5059685;28;20038;-77
2022/01/28 10:33:19;;;;;;;6.22;3.58;;;;;;;27.62;31.67;103488.59;5042867;28;20036;-77
2022/01/28 10:35:57;;;;;;;7.18;3.33;;;;;;;27.52;30.38;103488.09;5057336;28;20039;-78
2022/01/28 10:38:31;;;;;;;8.65;3.10;;;;;;;28.12;31.11;103487.38;5069698;28;20060;-77
2022/01/28 10:41:17;;;;;;;8.50;3.33;;;;;;;28.84;31.52;103485.88;5059327;28;20036;-78
2022/01/28 10:43:49;;;;;;;10.25;3.53;;;;;;;28.82;26.57;103495.84;5081877;28;20036;-78
2022/01/28 10:46:26;;;;;;;8.13;3.05;;;;;;;29.31;27.92;103484.53;5073539;28;20036;-79
2022/01/28 10:49:08;;;;;;;14.80;3.80;;;;;;;29.70;26.13;103486.13;5059298;28;20116;-77
2022/01/28 10:51:47;;;;;;;11.13;3.58;;;;;;;30.58;27.74;103484.19;5037863;28;20036;-78
2022/01/28 10:54:16;;;;;;;8.70;3.22;;;;;;;30.89;22.40;103488.75;5063168;28;20539;-78
2022/01/28 10:57:01;;;;;;;14.65;3.95;;;;;;;31.46;28.42;103489.13;5057790;28;20342;-77
2022/01/28 10:59:34;;;;;;;5.45;2.90;;;;;;;31.38;24.74;103474.22;5056021;28;20020;-78
2022/01/28 11:02:00;;;;;;;11.70;3.38;;;;;;;31.69;21.83;103472.38;5070376;28;20032;-78
2022/01/28 11:04:26;;;;;;;9.18;3.42;;;;;;;32.16;21.68;103475.88;5067860;28;20024;-78
2022/01/28 11:06:54;;;;;;;7.57;2.83;;;;;;;31.78;20.49;103476.41;5067100;28;20028;-77
2022/01/28 11:09:21;;;;;;;16.30;2.80;;;;;;;31.75;20.81;103476.56;5057780;28;20056;-77
2022/01/28 11:11:48;;;;;;;8.98;2.97;;;;;;;32.03;20.61;103470.31;5075635;28;20039;-78
2022/01/28 11:14:13;;;;;;;17.48;3.13;;;;;;;32.30;19.35;103459.59;5033705;28;20028;-77
2022/01/28 11:16:39;;;;;;;6.55;2.75;;;;;;;32.17;20.44;103457.75;5077788;28;20023;-77
2022/01/28 11:19:09;;;;;;;6.80;3.08;;;;;;;31.54;20.44;103454.34;5052986;28;20169;-77
2022/01/28 11:21:46;;;;;;;12.73;3.35;;;;;;;31.67;24.55;103447.22;5061260;28;20039;-77
2022/01/28 11:24:43;;;;;;;9.00;2.70;;;;;;;31.87;25.26;103437.84;5058676;28;20036;-77
2022/01/28 11:27:21;;;;;;;5.65;1.83;;;;;;;32.17;22.98;103436.03;5055183;28;20051;-78
2022/01/28 11:29:47;;;;;;;14.15;3.17;;;;;;;32.26;18.91;103432.75;5061438;28;20028;-77
2022/01/28 11:32:17;;;;;;;10.18;2.33;;;;;;;32.20;21.16;103427.75;5063829;28;20089;-77
2022/01/28 11:35:05;;;;;;;6.07;1.92;;;;;;;32.56;23.51;103416.31;5061455;28;20495;-78
2022/01/28 11:37:32;;;;;;;11.35;2.03;;;;;;;29.90;20.06;103406.75;5062375;28;20555;-78
2022/01/28 11:40:13;;;;;;;7.55;3.00;;;;;;;29.72;24.08;103408.56;5056577;28;20036;-77
2022/01/28 11:42:39;;;;;;;8.30;1.80;;;;;;;27.95;23.30;103409.94;5053311;28;20032;-77
2022/01/28 11:45:06;;;;;;;9.32;2.58;;;;;;;27.58;23.44;103408.88;5053255;28;20032;-77
2022/01/28 11:47:35;;;;;;;9.68;2.03;;;;;;;26.73;24.57;103409.66;5055157;28;20024;-77
2022/01/28 11:50:16;;;;;;;11.77;2.22;;;;;;;25.54;24.69;103412.22;5054064;28;20043;-77
2022/01/28 11:52:47;;;;;;;17.02;3.15;;;;;;;24.34;26.82;103399.88;5058905;28;20024;-78
2022/01/28 11:55:25;;;;;;;7.88;2.20;;;;;;;23.87;28.38;103401.19;5090433;28;20051;-77
2022/01/28 11:58:07;;;;;;;7.15;2.58;;;;;;;23.98;28.03;103397.34;5069177;28;20050;-77
2022/01/28 12:00:47;;;;;;;4.75;1.98;;;;;;;24.90;27.79;103408.00;5066283;28;20024;-77
2022/01/28 12:03:29;;;;;;;9.25;3.00;;;;;;;25.23;25.84;103398.91;5058736;28;20111;-76
2022/01/28 12:05:58;;;;;;;4.60;2.42;;;;;;;25.53;27.27;103405.06;5074538;28;20104;-77
2022/01/28 12:08:29;;;;;;;10.63;2.60;;;;;;;25.74;27.09;103399.88;5060982;28;20459;-77
2022/01/28 12:10:55;;;;;;;8.38;2.35;;;;;;;26.04;24.47;103405.97;5078394;28;20036;-78
2022/01/28 12:13:32;;;;;;;11.43;3.05;;;;;;;27.06;25.91;103409.25;5053106;28;20050;-76
2022/01/28 12:16:09;;;;;;;8.18;2.85;;;;;;;27.39;24.65;103400.72;5072590;28;20192;-77
2022/01/28 12:18:54;;;;;;;10.50;2.92;;;;;;;27.42;26.18;103389.81;5063692;28;20166;-77
2022/01/28 12:21:27;;;;;;;11.38;3.67;;;;;;;25.68;26.18;103386.66;5065939;28;20024;-77
2022/01/28 12:24:18;;;;;;;11.32;2.78;;;;;;;24.97;29.57;103379.19;5069189;28;20032;-77
2022/01/28 12:27:05;;;;;;;8.07;2.72;;;;;;;23.94;29.76;103367.09;5077577;28;20031;-77
2022/01/28 12:29:33;;;;;;;7.90;2.92;;;;;;;22.97;29.90;103366.88;5074258;28;20024;-77
2022/01/28 12:32:00;;;;;;;6.25;2.15;;;;;;;21.98;28.90;103363.69;5080895;28;20086;-77
2022/01/28 12:37:03;;;;;;;6.20;1.95;;;;;;;20.07;31.00;103357.72;5362767;22;20090;-72
2022/01/28 12:39:43;;;;;;;5.13;1.90;;;;;;;19.06;34.14;103345.38;4986863;28;20543;-72
2022/01/28 12:42:33;;;;;;;7.47;2.28;;;;;;;17.83;33.74;103335.28;4989095;28;20049;-72
2022/01/28 12:44:58;;;;;;;7.72;2.92;;;;;;;18.21;36.96;103344.03;5002818;28;21175;-72
2022/01/28 12:47:25;;;;;;;4.18;1.58;;;;;;;19.67;33.81;103338.63;5000032;28;20124;-71
2022/01/28 12:50:04;;;;;;;8.15;2.13;;;;;;;20.94;31.74;103337.91;4992818;28;20125;-73
2022/01/28 12:52:31;;;;;;;6.13;1.67;;;;;;;22.45;29.81;103332.44;5004678;28;20030;-72
2022/01/28 12:54:56;;;;;;;9.48;2.97;;;;;;;23.96;27.32;103340.25;4993018;28;20038;-73
2022/01/28 12:57:22;;;;;;;8.80;1.88;;;;;;;23.15;26.81;103334.38;5000399;28;20092;-74
2022/01/28 12:59:49;;;;;;;8.52;1.63;;;;;;;21.19;29.31;103337.50;4987862;28;20108;-72
2022/01/28 13:02:17;;;;;;;8.48;2.10;;;;;;;19.28;31.59;103332.78;4987556;28;20188;-72
2022/01/28 13:10:35;;;;;;;6.45;2.42;;;;;;;15.44;39.58;103324.03;5011904;28;20044;-71